createdAt,value
2022-11-11T00:02:14.885Z,96661.60
2022-11-11T00:05:00.175Z,96655.80
2022-11-11T00:07:45.493Z,96654.40
2022-11-11T00:10:31.487Z,96650.80
2022-11-11T00:13:17.144Z,96648.20
2022-11-11T00:16:11.510Z,96654.60
2022-11-11T00:19:15.630Z,96654.80
2022-11-11T00:22:19.996Z,96654.60
2022-11-11T00:25:08.656Z,96660.20
2022-11-11T00:27:54.139Z,96663.40
2022-11-11T00:30:39.477Z,96661.40
2022-11-11T00:33:24.964Z,96657.00
2022-11-11T00:36:10.636Z,96656.40
2022-11-11T00:38:58.226Z,96658.40
2022-11-11T00:41:43.447Z,96651.60
2022-11-11T00:44:28.841Z,96655.60
2022-11-11T00:47:33.068Z,96650.80
2022-11-11T00:50:41.165Z,96646.80
2022-11-11T00:53:31.460Z,96644.60
2022-11-11T00:56:17.261Z,96640.60
2022-11-11T00:59:07.233Z,96632.60
2022-11-11T01:01:52.610Z,96628.00
2022-11-11T01:04:37.903Z,96626.60
2022-11-11T01:07:23.764Z,96624.00
2022-11-11T01:10:09.437Z,96624.00
2022-11-11T01:13:12.301Z,96619.20
2022-11-11T01:16:05.256Z,96626.60
2022-11-11T01:18:52.363Z,96626.20
2022-11-11T01:21:37.651Z,96626.40
2022-11-11T01:24:23.264Z,96631.20
2022-11-11T01:27:08.733Z,96638.80
2022-11-11T01:29:54.132Z,96636.60
2022-11-11T01:32:40.601Z,96634.80
2022-11-11T01:35:26.134Z,96633.20
2022-11-11T01:38:11.692Z,96636.80
2022-11-11T01:40:57.029Z,96630.40
2022-11-11T01:43:42.356Z,96630.00
2022-11-11T01:46:50.346Z,96634.40
2022-11-11T01:49:56.663Z,96634.80
2022-11-11T01:52:45.408Z,96636.00
2022-11-11T01:55:32.166Z,96633.20
2022-11-11T01:58:18.831Z,96634.60
2022-11-11T02:01:05.459Z,96639.80
2022-11-11T02:04:13.806Z,96637.20
2022-11-11T02:07:05.026Z,96634.20
2022-11-11T02:09:52.539Z,96630.60
2022-11-11T02:12:56.687Z,96628.00
2022-11-11T02:15:42.449Z,96630.00
2022-11-11T02:18:31.223Z,96633.60
2022-11-11T02:21:34.266Z,96633.20
2022-11-11T02:24:22.380Z,96635.20
2022-11-11T02:27:13.317Z,96638.80
2022-11-11T02:30:02.479Z,96638.40
2022-11-11T02:32:52.012Z,96637.40
2022-11-11T02:35:47.182Z,96637.80
2022-11-11T02:38:32.874Z,96638.40
2022-11-11T02:41:37.107Z,96639.60
2022-11-11T02:44:23.531Z,96642.00
2022-11-11T02:47:09.107Z,96645.40
2022-11-11T02:49:54.590Z,96646.00
2022-11-11T02:52:39.982Z,96643.40
2022-11-11T02:55:25.515Z,96650.20
2022-11-11T02:58:11.676Z,96656.60
2022-11-11T03:00:56.787Z,96659.20
2022-11-11T03:03:42.232Z,96660.20
2022-11-11T03:06:27.878Z,96666.20
2022-11-11T03:09:13.538Z,96667.60
2022-11-11T03:11:59.181Z,96667.60
2022-11-11T03:14:44.739Z,96676.40
2022-11-11T03:17:39.545Z,96683.40
2022-11-11T03:20:43.674Z,96693.40
2022-11-11T03:23:29.181Z,96699.20
2022-11-11T03:26:15.824Z,96701.80
2022-11-11T03:29:01.614Z,96708.20
2022-11-11T03:34:40.394Z,96712.00
2022-11-11T03:37:44.057Z,96711.60
2022-11-11T03:40:29.215Z,96718.20
2022-11-11T03:43:17.407Z,96720.80
2022-11-11T03:46:05.439Z,96715.80
2022-11-11T03:48:50.647Z,96714.60
2022-11-11T03:51:36.001Z,96710.80
2022-11-11T03:54:21.678Z,96704.80
2022-11-11T03:57:25.995Z,96702.20
2022-11-11T04:00:15.213Z,96707.00
2022-11-11T04:03:26.950Z,96710.40
2022-11-11T04:06:31.495Z,96710.40
2022-11-11T04:09:36.049Z,96713.20
2022-11-11T04:12:23.366Z,96707.80
2022-11-11T04:15:27.685Z,96710.40
2022-11-11T04:18:13.186Z,96704.40
2022-11-11T04:21:17.478Z,96699.20
2022-11-11T04:24:03.691Z,96687.40
2022-11-11T04:26:49.004Z,96679.20
2022-11-11T04:29:35.009Z,96684.20
2022-11-11T04:32:42.895Z,96679.00
2022-11-11T04:35:28.310Z,96682.20
2022-11-11T04:38:32.483Z,96680.60
2022-11-11T04:41:17.807Z,96682.00
2022-11-11T04:44:23.370Z,96682.00
2022-11-11T04:47:08.750Z,96681.20
2022-11-11T04:49:54.003Z,96683.40
2022-11-11T04:52:39.393Z,96682.40
2022-11-11T04:55:44.849Z,96686.40
2022-11-11T04:58:35.446Z,96691.00
2022-11-11T05:01:45.075Z,96691.60
2022-11-11T05:04:31.560Z,96689.40
2022-11-11T05:07:35.629Z,96689.20
2022-11-11T05:10:20.810Z,96691.00
2022-11-11T05:13:25.115Z,96690.40
2022-11-11T05:16:38.954Z,96689.40
2022-11-11T05:19:43.418Z,96691.40
2022-11-11T05:22:39.572Z,96690.20
2022-11-11T05:25:30.714Z,96687.60
2022-11-11T05:28:15.965Z,96691.80
2022-11-11T05:31:01.140Z,96695.80
2022-11-11T05:33:46.619Z,96699.00
2022-11-11T05:36:32.056Z,96697.20
2022-11-11T05:39:17.572Z,96697.60
2022-11-11T05:42:02.987Z,96706.80
2022-11-11T05:44:48.497Z,96713.40
2022-11-11T05:47:33.645Z,96717.00
2022-11-11T05:50:19.149Z,96721.20
2022-11-11T05:53:04.441Z,96729.20
2022-11-11T05:55:53.209Z,96741.60
2022-11-11T05:58:38.749Z,96743.60
2022-11-11T06:01:24.357Z,96741.60
2022-11-11T06:04:15.181Z,96748.80
2022-11-11T06:07:03.508Z,96750.80
2022-11-11T06:09:48.943Z,96747.40
2022-11-11T06:12:54.359Z,96746.20
2022-11-11T06:15:41.100Z,96752.60
2022-11-11T06:18:31.205Z,96755.80
2022-11-11T06:21:17.590Z,96760.20
2022-11-11T06:24:03.848Z,96759.60
2022-11-11T06:26:49.120Z,96761.60
2022-11-11T06:29:34.772Z,96763.80
2022-11-11T06:32:20.066Z,96764.40
2022-11-11T06:35:05.921Z,96768.20
2022-11-11T06:37:50.968Z,96773.80
2022-11-11T06:40:35.946Z,96783.80
2022-11-11T06:43:22.051Z,96787.40
2022-11-11T06:46:18.365Z,96784.60
2022-11-11T06:49:04.573Z,96793.80
2022-11-11T06:51:49.714Z,96796.60
2022-11-11T06:54:35.174Z,96801.60
2022-11-11T06:57:23.353Z,96797.40
2022-11-11T07:00:09.624Z,96806.80
2022-11-11T07:02:58.054Z,96812.20
2022-11-11T07:05:44.087Z,96818.00
2022-11-11T07:08:29.724Z,96815.00
2022-11-11T07:11:19.035Z,96824.80
2022-11-11T07:14:05.523Z,96832.60
2022-11-11T07:16:50.893Z,96839.20
2022-11-11T07:19:36.692Z,96843.20
2022-11-11T07:22:21.881Z,96851.20
2022-11-11T07:25:08.003Z,96848.40
2022-11-11T07:27:58.763Z,96852.60
2022-11-11T07:30:44.712Z,96849.40
2022-11-11T07:33:30.208Z,96851.20
2022-11-11T07:36:15.750Z,96847.20
2022-11-11T07:39:06.159Z,96847.20
2022-11-11T07:41:53.757Z,96850.40
2022-11-11T07:44:39.224Z,96851.40
2022-11-11T07:47:24.659Z,96851.00
2022-11-11T07:50:10.743Z,96849.20
2022-11-11T07:52:56.018Z,96846.00
2022-11-11T07:55:41.410Z,96844.40
2022-11-11T07:58:27.050Z,96844.80
2022-11-11T08:01:12.811Z,96844.20
2022-11-11T08:03:58.269Z,96848.40
2022-11-11T08:06:43.815Z,96842.20
2022-11-11T08:09:28.840Z,96847.20
2022-11-11T08:12:33.181Z,96847.80
2022-11-11T08:15:18.829Z,96841.60
2022-11-11T08:18:04.254Z,96845.60
2022-11-11T08:20:54.737Z,96842.60
2022-11-11T08:26:48.059Z,96834.40
2022-11-11T08:29:33.281Z,96831.80
2022-11-11T08:32:18.525Z,96831.40
2022-11-11T08:35:04.684Z,96821.60
2022-11-11T08:37:49.779Z,96819.80
2022-11-11T08:40:35.376Z,96823.40
2022-11-11T08:43:23.037Z,96821.40
2022-11-11T08:46:09.367Z,96825.40
2022-11-11T08:48:55.187Z,96819.00
2022-11-11T08:51:44.609Z,96813.20
2022-11-11T08:54:30.520Z,96806.00
2022-11-11T08:57:16.119Z,96807.00
2022-11-11T09:00:01.569Z,96805.00
2022-11-11T09:02:47.169Z,96796.80
2022-11-11T09:05:33.997Z,96797.00
2022-11-11T09:08:19.783Z,96795.60
2022-11-11T09:11:05.310Z,96789.20
2022-11-11T09:13:50.842Z,96786.80
2022-11-11T09:16:36.418Z,96789.60
2022-11-11T09:19:22.197Z,96788.60
2022-11-11T09:22:07.334Z,96788.00
2022-11-11T09:24:52.907Z,96785.60
2022-11-11T09:27:38.706Z,96786.80
2022-11-11T09:30:26.230Z,96786.20
2022-11-11T09:33:12.665Z,96786.40
2022-11-11T09:35:59.395Z,96789.00
2022-11-11T09:38:44.624Z,96786.80
2022-11-11T09:42:17.913Z,96789.40
2022-11-11T09:45:22.329Z,96789.20
2022-11-11T09:48:51.667Z,96784.00
2022-11-11T09:52:23.014Z,96783.80
2022-11-11T09:55:23.516Z,96783.20
2022-11-11T09:58:45.979Z,96788.60
2022-11-11T10:01:50.480Z,96792.40
2022-11-11T10:04:55.816Z,96793.00
2022-11-11T10:07:52.070Z,96794.20
2022-11-11T10:10:48.988Z,96800.60
2022-11-11T10:13:37.287Z,96796.40
2022-11-11T10:16:55.574Z,96791.40
2022-11-11T10:20:18.600Z,96789.20
2022-11-11T10:23:15.022Z,96790.20
2022-11-11T10:26:10.701Z,96783.20
2022-11-11T10:29:00.437Z,96790.00
2022-11-11T10:32:04.360Z,96783.60
2022-11-11T10:34:49.402Z,96783.60
2022-11-11T10:37:44.611Z,96781.60
2022-11-11T10:40:50.407Z,96784.00
2022-11-11T10:43:35.931Z,96789.20
2022-11-11T10:46:35.400Z,96795.40
2022-11-11T10:49:31.568Z,96795.00
2022-11-11T10:52:35.293Z,96787.60
2022-11-11T10:55:51.997Z,96784.00
2022-11-11T10:58:59.785Z,96786.20
2022-11-11T11:02:13.187Z,96786.60
2022-11-11T11:05:27.582Z,96791.00
2022-11-11T11:08:20.127Z,96797.20
2022-11-11T11:11:16.556Z,96799.80
2022-11-11T11:14:11.013Z,96807.60
2022-11-11T11:17:01.803Z,96811.40
2022-11-11T11:20:20.543Z,96809.00
2022-11-11T11:23:06.034Z,96809.00
2022-11-11T11:25:57.766Z,96810.80
2022-11-11T11:29:03.869Z,96807.20
2022-11-11T11:31:49.170Z,96803.80
2022-11-11T11:34:48.167Z,96807.00
2022-11-11T11:37:50.506Z,96805.20
2022-11-11T11:40:56.431Z,96801.20
2022-11-11T11:43:43.362Z,96800.20
2022-11-11T11:46:39.703Z,96799.60
2022-11-11T11:49:42.338Z,96791.20
2022-11-11T11:52:52.724Z,96786.60
2022-11-11T11:56:07.473Z,96785.60
2022-11-11T11:59:16.188Z,96781.40
2022-11-11T12:02:44.427Z,96780.00
2022-11-11T12:05:50.895Z,96771.80
2022-11-11T12:09:23.685Z,96769.80
2022-11-11T12:12:31.717Z,96766.80
2022-11-11T12:15:44.186Z,96774.80
2022-11-11T12:19:09.645Z,96774.80
2022-11-11T12:22:03.957Z,96781.00
2022-11-11T12:25:21.306Z,96785.40
2022-11-11T12:28:40.763Z,96780.60
2022-11-11T12:31:41.905Z,96776.20
2022-11-11T12:35:01.454Z,96766.60
2022-11-11T12:38:15.014Z,96768.80
2022-11-11T12:41:16.488Z,96770.20
2022-11-11T12:44:08.995Z,96766.20
2022-11-11T12:47:35.692Z,96759.40
2022-11-11T12:50:53.196Z,96761.00
2022-11-11T12:53:48.079Z,96758.80
2022-11-11T12:57:05.163Z,96757.60
2022-11-11T13:00:05.339Z,96760.20
2022-11-11T13:03:12.526Z,96760.00
2022-11-11T13:06:21.712Z,96759.60
2022-11-11T13:09:42.605Z,96763.20
2022-11-11T13:12:42.469Z,96771.00
2022-11-11T13:15:28.987Z,96777.60
2022-11-11T13:18:53.320Z,96778.60
2022-11-11T13:21:54.711Z,96779.00
2022-11-11T13:24:40.468Z,96777.60
2022-11-11T13:27:31.735Z,96772.60
2022-11-11T13:30:41.469Z,96772.80
2022-11-11T13:33:42.849Z,96769.80
2022-11-11T13:36:32.713Z,96766.80
2022-11-11T13:39:37.999Z,96771.00
2022-11-11T13:42:28.527Z,96770.40
2022-11-11T13:45:42.169Z,96767.80
2022-11-11T13:48:39.197Z,96761.60
2022-11-11T13:51:37.956Z,96763.00
2022-11-11T13:54:33.746Z,96762.60
2022-11-11T13:57:27.037Z,96766.00
2022-11-11T14:00:18.722Z,96773.80
2022-11-11T14:03:22.307Z,96774.40
2022-11-11T14:06:14.343Z,96782.80
2022-11-11T14:09:00.256Z,96778.40
2022-11-11T14:11:45.613Z,96784.80
2022-11-11T14:14:37.248Z,96792.60
2022-11-11T14:17:23.201Z,96801.20
2022-11-11T14:20:41.707Z,96803.40
2022-11-11T14:23:33.132Z,96806.40
2022-11-11T14:26:26.327Z,96802.60
2022-11-11T14:29:19.149Z,96805.00
2022-11-11T14:32:41.153Z,96800.00
2022-11-11T14:36:18.894Z,96787.80
2022-11-11T14:39:40.076Z,96789.20
2022-11-11T14:42:35.468Z,96792.40
2022-11-11T14:45:24.002Z,96793.60
2022-11-11T14:48:53.300Z,96790.60
2022-11-11T14:51:43.204Z,96785.40
2022-11-11T14:54:36.888Z,96783.40
2022-11-11T14:57:26.399Z,96787.20
2022-11-11T15:00:25.392Z,96788.00
2022-11-11T15:03:18.326Z,96790.80
2022-11-11T15:06:16.774Z,96790.60
2022-11-11T15:09:26.559Z,96793.60
2022-11-11T15:13:06.027Z,96791.20
2022-11-11T15:16:25.757Z,96798.40
2022-11-11T15:19:49.247Z,96802.40
2022-11-11T15:23:12.998Z,96799.60
2022-11-11T15:26:20.210Z,96805.40
2022-11-11T15:29:48.806Z,96806.60
2022-11-11T15:33:11.609Z,96801.80
2022-11-11T15:36:18.688Z,96803.00
2022-11-11T15:39:12.569Z,96804.40
2022-11-11T15:41:57.767Z,96805.80
2022-11-11T15:44:43.298Z,96805.80
2022-11-11T15:47:34.213Z,96808.80
2022-11-11T15:50:26.192Z,96810.20
2022-11-11T15:53:23.356Z,96808.20
2022-11-11T15:56:09.099Z,96810.80
2022-11-11T15:58:55.161Z,96817.40
2022-11-11T16:01:40.775Z,96817.40
2022-11-11T16:07:38.089Z,96828.80
2022-11-11T16:10:34.322Z,96835.00
2022-11-11T16:13:34.503Z,96836.00
2022-11-11T16:16:31.397Z,96837.60
2022-11-11T16:19:35.468Z,96840.20
2022-11-11T16:22:28.396Z,96838.40
2022-11-11T16:25:19.571Z,96841.40
2022-11-11T16:28:05.344Z,96839.60
2022-11-11T16:30:51.067Z,96840.00
2022-11-11T16:33:36.540Z,96844.40
2022-11-11T16:36:22.099Z,96839.40
2022-11-11T16:39:21.422Z,96835.20
2022-11-11T16:42:21.796Z,96838.40
2022-11-11T16:45:20.468Z,96836.40
2022-11-11T16:48:31.639Z,96833.60
2022-11-11T16:51:25.179Z,96832.80
2022-11-11T16:54:22.933Z,96833.60
2022-11-11T16:57:08.368Z,96830.40
2022-11-11T17:00:01.046Z,96829.40
2022-11-11T17:02:46.438Z,96830.80
2022-11-11T17:05:59.254Z,96832.40
2022-11-11T17:08:46.128Z,96820.80
2022-11-11T17:11:40.485Z,96817.20
2022-11-11T17:14:28.148Z,96819.20
2022-11-11T17:17:13.653Z,96825.60
2022-11-11T17:20:19.714Z,96822.60
2022-11-11T17:23:06.599Z,96823.80
2022-11-11T17:26:00.632Z,96827.20
2022-11-11T17:28:46.085Z,96830.40
2022-11-11T17:31:31.714Z,96826.20
2022-11-11T17:34:17.202Z,96829.60
2022-11-11T17:37:02.779Z,96832.20
2022-11-11T17:39:48.370Z,96829.20
2022-11-11T17:42:34.706Z,96829.60
2022-11-11T17:45:20.247Z,96834.00
2022-11-11T17:48:06.726Z,96837.20
2022-11-11T17:50:52.172Z,96828.80
2022-11-11T17:53:37.489Z,96827.80
2022-11-11T17:56:25.310Z,96833.00
2022-11-11T17:59:10.979Z,96835.00
2022-11-11T18:01:57.028Z,96831.00
2022-11-11T18:04:42.518Z,96838.20
2022-11-11T18:07:28.158Z,96838.40
2022-11-11T18:10:13.916Z,96839.00
2022-11-11T18:12:59.586Z,96839.20
2022-11-11T18:15:44.850Z,96827.80
2022-11-11T18:18:32.167Z,96827.60
2022-11-11T18:21:17.596Z,96823.00
2022-11-11T18:24:10.859Z,96822.20
2022-11-11T18:26:56.096Z,96816.20
2022-11-11T18:29:42.501Z,96812.20
2022-11-11T18:32:28.123Z,96803.60
2022-11-11T18:35:13.683Z,96801.00
2022-11-11T18:37:59.133Z,96796.60
2022-11-11T18:40:44.071Z,96800.40
2022-11-11T18:43:29.298Z,96805.20
2022-11-11T18:46:17.329Z,96815.00
2022-11-11T18:49:05.426Z,96827.00
2022-11-11T18:51:50.826Z,96822.40
2022-11-11T18:54:36.224Z,96826.60
2022-11-11T18:57:21.567Z,96828.00
2022-11-11T19:00:07.955Z,96822.40
2022-11-11T19:02:53.184Z,96819.20
2022-11-11T19:05:38.711Z,96812.80
2022-11-11T19:08:24.089Z,96807.40
2022-11-11T19:11:10.362Z,96806.20
2022-11-11T19:13:56.040Z,96814.40
2022-11-11T19:16:42.104Z,96817.80
2022-11-11T19:19:27.256Z,96822.00
2022-11-11T19:22:12.808Z,96825.80
2022-11-11T19:24:57.952Z,96826.00
2022-11-11T19:27:43.407Z,96831.60
2022-11-11T19:30:28.639Z,96833.20
2022-11-11T19:33:13.931Z,96836.20
2022-11-11T19:36:02.858Z,96835.40
2022-11-11T19:38:48.644Z,96835.40
2022-11-11T19:41:34.048Z,96829.80
2022-11-11T19:44:19.491Z,96830.00
2022-11-11T19:47:05.454Z,96832.80
2022-11-11T19:49:50.708Z,96837.60
2022-11-11T19:52:35.973Z,96839.60
2022-11-11T19:55:21.377Z,96842.20
2022-11-11T19:58:07.513Z,96840.60
2022-11-11T20:00:52.789Z,96844.20
2022-11-11T20:03:39.951Z,96834.80
2022-11-11T20:06:35.992Z,96836.20
2022-11-11T20:09:21.512Z,96829.00
2022-11-11T20:12:06.973Z,96822.80
2022-11-11T20:14:52.567Z,96820.80
2022-11-11T20:17:37.974Z,96820.60
2022-11-11T20:20:24.293Z,96826.00
2022-11-11T20:23:09.605Z,96831.40
2022-11-11T20:25:56.283Z,96833.20
2022-11-11T20:28:42.852Z,96830.40
2022-11-11T20:31:28.477Z,96829.20
2022-11-11T20:34:13.567Z,96828.80
2022-11-11T20:36:58.873Z,96833.00
2022-11-11T20:39:44.284Z,96842.80
2022-11-11T20:42:29.709Z,96842.80
2022-11-11T20:45:15.219Z,96847.20
2022-11-11T20:48:00.664Z,96842.60
2022-11-11T20:50:46.215Z,96846.00
2022-11-11T20:53:31.612Z,96848.20
2022-11-11T20:56:23.409Z,96850.60
2022-11-11T20:59:09.541Z,96852.80
2022-11-11T21:01:54.789Z,96848.20
2022-11-11T21:04:40.141Z,96844.40
2022-11-11T21:07:25.933Z,96841.20
2022-11-11T21:10:11.238Z,96834.60
2022-11-11T21:12:56.599Z,96831.60
2022-11-11T21:15:41.965Z,96821.40
2022-11-11T21:18:27.681Z,96821.20
2022-11-11T21:21:25.178Z,96817.20
2022-11-11T21:24:10.520Z,96808.80
2022-11-11T21:26:56.107Z,96810.80
2022-11-11T21:29:41.646Z,96816.80
2022-11-11T21:32:27.366Z,96815.20
2022-11-11T21:35:12.740Z,96816.20
2022-11-11T21:37:58.053Z,96819.20
2022-11-11T21:40:43.198Z,96825.80
2022-11-11T21:43:28.527Z,96821.00
2022-11-11T21:46:18.595Z,96823.40
2022-11-11T21:49:05.589Z,96822.40
2022-11-11T21:51:51.048Z,96832.40
2022-11-11T21:54:36.408Z,96829.20
2022-11-11T21:57:21.718Z,96828.60
2022-11-11T22:00:08.337Z,96827.20
2022-11-11T22:02:54.211Z,96828.40
2022-11-11T22:05:39.347Z,96827.60
2022-11-11T22:08:25.162Z,96819.80
2022-11-11T22:11:18.389Z,96817.60
2022-11-11T22:14:05.696Z,96822.80
2022-11-11T22:16:51.152Z,96820.60
2022-11-11T22:19:36.549Z,96821.80
2022-11-11T22:22:21.714Z,96824.20
2022-11-11T22:25:08.039Z,96825.00
2022-11-11T22:27:54.248Z,96823.20
2022-11-11T22:30:39.510Z,96818.40
2022-11-11T22:33:25.029Z,96810.60
2022-11-11T22:36:19.852Z,96806.80
2022-11-11T22:39:07.736Z,96808.40
2022-11-11T22:41:52.988Z,96801.60
2022-11-11T22:44:38.349Z,96794.20
2022-11-11T22:47:23.787Z,96794.00
2022-11-11T22:50:09.427Z,96791.80
2022-11-11T22:52:55.136Z,96794.00
2022-11-11T22:55:40.365Z,96794.00
2022-11-11T22:58:26.069Z,96796.40
2022-11-11T23:01:29.643Z,96806.20
2022-11-11T23:04:15.287Z,96814.20
2022-11-11T23:07:00.667Z,96815.80
2022-11-11T23:09:45.830Z,96809.20
2022-11-11T23:12:31.299Z,96809.40
2022-11-11T23:15:16.858Z,96808.80
2022-11-11T23:18:02.339Z,96807.80
2022-11-11T23:20:57.365Z,96804.40
2022-11-11T23:23:42.892Z,96807.00
2022-11-11T23:26:31.420Z,96812.00
2022-11-11T23:29:16.528Z,96808.60
2022-11-11T23:32:02.028Z,96805.60
2022-11-11T23:34:47.350Z,96803.60
2022-11-11T23:37:32.758Z,96801.80
2022-11-11T23:40:18.178Z,96797.40
2022-11-11T23:43:03.680Z,96798.40
2022-11-11T23:45:51.899Z,96790.80
2022-11-11T23:48:41.979Z,96797.80
2022-11-11T23:51:27.535Z,96791.80
2022-11-11T23:54:12.872Z,96791.20
2022-11-11T23:56:58.302Z,96796.60
2022-11-11T23:59:43.690Z,96789.60
